Time;durP1;ratioP1;P1;durP2;ratioP2;P2;SDS_P1;SDS_P2;PMS_P1;PMS_P2;Temp;Humidity;BMP_temperature;BMP_pressure;BME280_temperature;BME280_humidity;BME280_pressure;Samples;Min_cycle;Max_cycle;Signal;HPM_P1;HPM_P2
2022/01/01 00:00:43;;;;;;;31.35;28.20;;;11.80;99.90;;;;;;4954257;29;20035;-76
2022/01/01 00:03:10;;;;;;;25.20;22.20;;;11.80;99.90;;;;;;4936373;29;20049;-76
2022/01/01 00:05:36;;;;;;;55.40;50.05;;;11.90;99.90;;;;;;4954416;29;20046;-76
2022/01/01 00:08:05;;;;;;;137.07;124.28;;;11.80;99.90;;;;;;4953456;29;20039;-77
2022/01/01 00:10:31;;;;;;;104.25;94.35;;;11.80;99.90;;;;;;4954118;29;20042;-75
2022/01/01 00:12:58;;;;;;;36.20;32.50;;;11.80;99.90;;;;;;4953968;29;20031;-82
2022/01/01 00:15:24;;;;;;;25.73;22.95;;;11.80;99.90;;;;;;4953911;29;20043;-74
2022/01/01 00:17:50;;;;;;;22.13;19.73;;;11.80;99.90;;;;;;4954271;29;20054;-75
2022/01/01 00:20:16;;;;;;;25.65;22.70;;;11.80;99.90;;;;;;4936393;29;20050;-75
2022/01/01 00:22:43;;;;;;;15.68;14.30;;;11.80;99.90;;;;;;4953611;29;20043;-76
2022/01/01 00:25:11;;;;;;;18.60;17.05;;;11.80;99.90;;;;;;4936509;29;20198;-76
2022/01/01 00:27:37;;;;;;;23.63;21.23;;;11.80;99.90;;;;;;4954341;29;20035;-77
2022/01/01 00:30:07;;;;;;;34.15;31.02;;;11.80;99.90;;;;;;4953116;29;20039;-76
2022/01/01 00:32:39;;;;;;;14.40;13.23;;;11.80;99.90;;;;;;4953968;29;20516;-76
2022/01/01 00:35:06;;;;;;;17.67;15.88;;;11.80;99.90;;;;;;4953628;29;20380;-76
2022/01/01 00:37:32;;;;;;;24.90;16.60;;;11.80;99.90;;;;;;4954403;29;20031;-76
2022/01/01 00:39:58;;;;;;;22.52;19.40;;;11.80;99.90;;;;;;4953893;29;20035;-83
2022/01/01 00:42:25;;;;;;;28.20;24.42;;;11.70;99.90;;;;;;4953646;29;20039;-77
2022/01/01 00:44:51;;;;;;;25.05;21.30;;;11.70;99.90;;;;;;4954209;29;20047;-77
2022/01/01 00:47:17;;;;;;;25.40;22.85;;;11.60;99.90;;;;;;4953215;29;20492;-76
2022/01/01 00:49:44;;;;;;;26.75;24.02;;;11.60;99.90;;;;;;4933243;29;20055;-76
2022/01/01 00:52:10;;;;;;;24.95;22.70;;;11.60;99.90;;;;;;4934034;29;20043;-78
2022/01/01 00:54:36;;;;;;;26.73;24.23;;;11.60;99.90;;;;;;4935330;29;20039;-77
2022/01/01 00:57:03;;;;;;;29.10;26.15;;;11.60;99.90;;;;;;4934272;29;20032;-82
2022/01/01 00:59:30;;;;;;;25.38;23.08;;;11.50;99.90;;;;;;4935044;29;20031;-77
2022/01/01 01:01:58;;;;;;;21.83;17.65;;;11.50;99.90;;;;;;4934638;29;20038;-77
2022/01/01 01:04:25;;;;;;;23.75;20.13;;;11.50;99.90;;;;;;4934057;29;20042;-76
2022/01/01 01:06:52;;;;;;;24.35;20.30;;;11.40;99.90;;;;;;4934502;29;20456;-76
2022/01/01 01:09:18;;;;;;;21.90;19.55;;;11.40;99.90;;;;;;4937546;29;20040;-76
2022/01/01 01:11:47;;;;;;;24.92;22.40;;;11.40;99.90;;;;;;4938739;29;20362;-76
2022/01/01 01:14:22;;;;;;;30.40;27.35;;;11.40;99.90;;;;;;4937659;29;20036;-77
2022/01/01 01:16:50;;;;;;;31.45;28.23;;;11.30;99.90;;;;;;4938204;29;20083;-77
2022/01/01 01:19:18;;;;;;;29.60;26.00;;;11.30;99.90;;;;;;4937879;29;20040;-76
2022/01/01 01:21:45;;;;;;;27.65;23.17;;;11.30;99.90;;;;;;4939290;29;20036;-76
2022/01/01 01:24:13;;;;;;;23.88;18.50;;;11.30;99.90;;;;;;4936472;29;20027;-77
2022/01/01 01:26:39;;;;;;;15.63;14.02;;;11.30;99.90;;;;;;4937820;29;20046;-76
2022/01/01 01:29:06;;;;;;;20.55;14.88;;;11.30;99.90;;;;;;4937280;29;20035;-77
2022/01/01 01:31:33;;;;;;;16.50;14.80;;;11.30;99.90;;;;;;4938103;29;20024;-77
2022/01/01 01:34:01;;;;;;;10.68;9.57;;;11.30;99.90;;;;;;4938178;29;20474;-77
2022/01/01 01:36:27;;;;;;;10.43;9.43;;;11.30;99.90;;;;;;4937683;29;20035;-76
2022/01/01 01:38:53;;;;;;;9.57;8.63;;;11.30;99.90;;;;;;4938235;29;20385;-76
2022/01/01 01:41:20;;;;;;;9.20;8.30;;;11.30;99.90;;;;;;4938004;29;20042;-76
2022/01/01 01:43:50;;;;;;;12.65;9.45;;;11.30;99.90;;;;;;4937659;29;20044;-77
2022/01/01 01:46:17;;;;;;;12.07;9.77;;;11.40;99.90;;;;;;4947571;29;20043;-77
2022/01/01 01:48:44;;;;;;;8.40;7.60;;;11.30;99.90;;;;;;4947380;29;20044;-77
2022/01/01 01:51:11;;;;;;;10.30;7.57;;;11.40;99.90;;;;;;4965771;29;20046;-77
2022/01/01 01:53:38;;;;;;;11.35;9.65;;;11.30;99.90;;;;;;4966712;29;20035;-78
2022/01/01 01:56:05;;;;;;;9.50;7.78;;;11.30;99.90;;;;;;4960250;29;20047;-81
2022/01/01 01:58:33;;;;;;;8.95;7.40;;;11.40;99.90;;;;;;4940289;29;20100;-77
2022/01/01 02:01:20;;;;;;;11.57;6.57;;;11.40;99.90;;;;;;4957396;29;20469;-77
2022/01/01 02:03:48;;;;;;;6.63;6.03;;;11.30;99.90;;;;;;4957283;29;20042;-77
2022/01/01 02:06:15;;;;;;;7.32;6.63;;;11.40;99.90;;;;;;4957712;29;20039;-78
2022/01/01 02:08:42;;;;;;;9.27;7.47;;;11.30;99.90;;;;;;4957683;29;20039;-78
2022/01/01 02:11:09;;;;;;;9.90;6.80;;;11.30;99.90;;;;;;4956367;29;20039;-78
2022/01/01 02:13:48;;;;;;;6.47;5.88;;;11.30;99.90;;;;;;4957674;29;20365;-78
2022/01/01 02:18:50;;;;;;;7.38;6.20;;;11.30;99.90;;;;;;4955688;28;20046;-78
2022/01/01 02:21:18;;;;;;;6.75;6.15;;;11.30;99.90;;;;;;4955257;29;20377;-78
2022/01/01 02:23:46;;;;;;;7.70;5.68;;;11.30;99.90;;;;;;4956436;29;20043;-78
2022/01/01 02:26:15;;;;;;;9.23;6.00;;;11.30;99.90;;;;;;4955315;29;20401;-77
2022/01/01 02:28:43;;;;;;;5.82;5.25;;;11.30;99.90;;;;;;4939174;29;20047;-78
2022/01/01 02:31:10;;;;;;;8.90;6.80;;;11.30;99.90;;;;;;4955414;29;20445;-76
2022/01/01 02:33:37;;;;;;;12.27;5.95;;;11.30;99.90;;;;;;4955725;29;20043;-78
2022/01/01 02:36:05;;;;;;;5.47;4.88;;;11.30;99.90;;;;;;4955973;29;20042;-78
2022/01/01 02:38:35;;;;;;;7.40;5.63;;;11.30;99.90;;;;;;4955711;29;20449;-75
2022/01/01 02:41:02;;;;;;;5.07;4.65;;;11.30;99.90;;;;;;4955831;29;20035;-78
2022/01/01 02:43:31;;;;;;;5.53;4.65;;;11.30;99.90;;;;;;4955492;29;20027;-78
2022/01/01 02:45:57;;;;;;;6.10;4.63;;;11.30;99.90;;;;;;4956153;29;20031;-77
2022/01/01 02:48:24;;;;;;;5.63;5.13;;;11.30;99.90;;;;;;4955319;29;20070;-78
2022/01/01 02:50:53;;;;;;;7.22;5.43;;;11.30;99.90;;;;;;4956013;29;20151;-78
2022/01/01 02:53:19;;;;;;;6.43;5.38;;;11.20;99.90;;;;;;4954843;29;20039;-78
2022/01/01 02:55:46;;;;;;;5.45;4.95;;;11.30;99.90;;;;;;4955329;29;20043;-78
2022/01/01 02:58:13;;;;;;;6.82;5.40;;;11.30;99.90;;;;;;4937604;29;20118;-78
2022/01/01 03:00:40;;;;;;;8.40;5.95;;;11.20;99.90;;;;;;4955614;29;20027;-78
2022/01/01 03:03:07;;;;;;;5.88;5.28;;;11.20;99.90;;;;;;4955378;29;20038;-83
2022/01/01 03:05:35;;;;;;;6.13;5.50;;;11.20;99.90;;;;;;4954771;29;20036;-78
2022/01/01 03:08:02;;;;;;;6.82;5.05;;;11.20;99.90;;;;;;4955421;29;20484;-78
2022/01/01 03:10:28;;;;;;;5.35;4.85;;;11.20;99.90;;;;;;4954427;29;20104;-78
2022/01/01 03:12:54;;;;;;;6.22;5.22;;;11.20;99.90;;;;;;4937265;29;20039;-78
2022/01/01 03:15:21;;;;;;;7.82;6.05;;;11.20;99.90;;;;;;4937017;29;20094;-77
2022/01/01 03:17:47;;;;;;;6.32;5.22;;;11.10;99.90;;;;;;4955328;29;20027;-78
2022/01/01 03:20:14;;;;;;;10.60;6.82;;;11.10;99.90;;;;;;4954383;29;20035;-78
2022/01/01 03:22:40;;;;;;;6.90;6.20;;;11.10;99.90;;;;;;4955185;29;20062;-78
2022/01/01 03:25:06;;;;;;;8.68;6.78;;;11.10;99.90;;;;;;4954841;29;20042;-77
2022/01/01 03:27:33;;;;;;;7.35;6.63;;;11.10;99.90;;;;;;4937000;29;20073;-79
2022/01/01 03:29:59;;;;;;;9.32;7.32;;;11.00;99.90;;;;;;4954423;28;20032;-74
2022/01/01 03:32:25;;;;;;;8.13;7.43;;;11.00;99.90;;;;;;4936889;29;20038;-78
2022/01/01 03:34:52;;;;;;;9.00;6.75;;;11.00;99.90;;;;;;4954365;29;20048;-78
2022/01/01 03:37:18;;;;;;;7.78;7.07;;;10.90;99.90;;;;;;4954190;29;20496;-76
2022/01/01 03:39:44;;;;;;;7.60;6.90;;;11.00;99.90;;;;;;4954727;29;20023;-74
2022/01/01 03:42:10;;;;;;;7.68;6.93;;;11.00;99.90;;;;;;4954370;29;20062;-86
2022/01/01 03:44:37;;;;;;;7.38;6.78;;;11.00;99.90;;;;;;4954678;29;20039;-77
2022/01/01 03:47:09;;;;;;;9.52;7.50;;;11.00;99.90;;;;;;4954366;29;20047;-78
2022/01/01 03:49:39;;;;;;;7.20;6.55;;;11.00;99.90;;;;;;4954076;29;20055;-78
2022/01/01 03:52:06;;;;;;;7.22;6.53;;;10.90;99.90;;;;;;4954621;29;20027;-78
2022/01/01 03:54:32;;;;;;;7.90;7.15;;;10.90;99.90;;;;;;4936326;29;20043;-78
2022/01/01 03:56:59;;;;;;;9.57;8.07;;;10.90;99.90;;;;;;4954597;29;20473;-78
2022/01/01 03:59:25;;;;;;;10.00;8.32;;;10.90;99.90;;;;;;4954091;29;20039;-78
2022/01/01 04:01:51;;;;;;;8.30;7.15;;;10.90;99.90;;;;;;4954037;29;20048;-78
2022/01/01 04:04:22;;;;;;;7.95;7.25;;;10.90;99.90;;;;;;4936280;29;20035;-78
2022/01/01 04:06:49;;;;;;;13.55;9.02;;;10.80;99.90;;;;;;4954571;29;20042;-77
2022/01/01 04:09:15;;;;;;;8.50;7.38;;;10.80;99.90;;;;;;4953783;29;20035;-80
2022/01/01 04:11:43;;;;;;;6.90;6.20;;;10.80;99.90;;;;;;4937066;29;20039;-77
2022/01/01 04:14:15;;;;;;;10.30;7.70;;;10.80;99.90;;;;;;4954536;29;20050;-77
2022/01/01 04:16:42;;;;;;;8.98;6.75;;;10.70;99.90;;;;;;4954222;29;20046;-77
2022/01/01 04:19:09;;;;;;;6.95;6.35;;;10.70;99.90;;;;;;4936661;29;20043;-74
2022/01/01 04:21:35;;;;;;;7.20;6.28;;;10.70;99.90;;;;;;4953352;29;20523;-78
2022/01/01 04:24:02;;;;;;;13.07;7.68;;;10.60;99.90;;;;;;4936847;29;20050;-77
2022/01/01 04:26:28;;;;;;;6.88;6.18;;;10.60;99.90;;;;;;4953701;29;20039;-78
2022/01/01 04:28:54;;;;;;;7.45;6.70;;;10.50;99.90;;;;;;4954185;29;20035;-78
2022/01/01 04:31:21;;;;;;;8.35;6.63;;;10.50;99.90;;;;;;4953727;29;20039;-78
2022/01/01 04:33:47;;;;;;;12.18;7.72;;;10.50;99.90;;;;;;4953843;29;20047;-77
2022/01/01 04:36:13;;;;;;;10.90;7.90;;;10.50;99.90;;;;;;4953628;29;20035;-84
2022/01/01 04:38:42;;;;;;;8.82;7.82;;;10.50;99.90;;;;;;4936215;29;20124;-79
2022/01/01 04:41:12;;;;;;;7.80;7.00;;;10.50;99.90;;;;;;4954051;29;20031;-75
2022/01/01 04:43:40;;;;;;;7.20;6.40;;;10.40;99.90;;;;;;4952795;29;20034;-75
2022/01/01 04:46:07;;;;;;;9.60;8.65;;;10.40;99.90;;;;;;4954187;29;20378;-78
2022/01/01 04:48:37;;;;;;;10.45;9.43;;;10.40;99.90;;;;;;4953426;29;20500;-77
2022/01/01 04:51:07;;;;;;;8.10;7.40;;;10.40;99.90;;;;;;4953767;29;20070;-75
2022/01/01 04:53:35;;;;;;;9.77;7.40;;;10.40;99.90;;;;;;4954276;29;20104;-76
2022/01/01 04:56:05;;;;;;;9.18;7.93;;;10.40;99.90;;;;;;4953786;29;20287;-76
2022/01/01 04:58:32;;;;;;;11.95;8.43;;;10.40;99.90;;;;;;4953091;29;20043;-75
2022/01/01 05:00:58;;;;;;;9.25;8.05;;;10.40;99.90;;;;;;4953892;29;20031;-75
2022/01/01 05:03:25;;;;;;;9.25;8.32;;;10.40;99.90;;;;;;4952775;29;20035;-75
2022/01/01 05:05:51;;;;;;;9.70;8.80;;;10.40;99.90;;;;;;4953734;29;20062;-75
2022/01/01 05:08:17;;;;;;;12.20;8.70;;;10.40;99.90;;;;;;4935820;29;20051;-82
2022/01/01 05:10:43;;;;;;;10.27;9.25;;;10.40;99.90;;;;;;4953795;29;20032;-75
2022/01/01 05:13:09;;;;;;;12.63;10.02;;;10.40;99.90;;;;;;4953553;29;20035;-75
2022/01/01 05:15:36;;;;;;;10.80;9.73;;;10.40;99.90;;;;;;4952685;29;20120;-75
2022/01/01 05:18:02;;;;;;;10.48;9.45;;;10.40;99.90;;;;;;4953895;29;20031;-75
2022/01/01 05:20:28;;;;;;;15.52;9.50;;;10.40;99.90;;;;;;4952726;29;20031;-75
2022/01/01 05:22:54;;;;;;;11.23;9.68;;;10.40;99.90;;;;;;4953247;29;20396;-75
2022/01/01 05:25:20;;;;;;;9.52;8.63;;;10.30;99.90;;;;;;4952998;29;20046;-75
2022/01/01 05:27:47;;;;;;;9.50;8.57;;;10.30;99.90;;;;;;4953792;29;20035;-75
2022/01/01 05:30:13;;;;;;;12.80;9.43;;;10.30;99.90;;;;;;4953967;29;20032;-75
2022/01/01 05:32:39;;;;;;;10.02;9.10;;;10.30;99.90;;;;;;4952880;29;20035;-76
2022/01/01 05:35:06;;;;;;;12.00;9.05;;;10.20;99.90;;;;;;4952713;29;20054;-76
2022/01/01 05:37:33;;;;;;;10.52;9.55;;;10.20;99.90;;;;;;4952719;29;20031;-75
2022/01/01 05:39:59;;;;;;;11.13;10.18;;;10.20;99.90;;;;;;4953322;29;20040;-75
2022/01/01 05:42:25;;;;;;;9.90;9.00;;;10.20;99.90;;;;;;4953217;29;20042;-75
2022/01/01 05:44:51;;;;;;;10.00;8.98;;;10.20;99.90;;;;;;4953807;29;20027;-75
2022/01/01 05:47:17;;;;;;;9.70;8.82;;;10.10;99.90;;;;;;4953450;29;20043;-82
2022/01/01 05:49:44;;;;;;;16.50;9.68;;;10.20;99.90;;;;;;4952859;29;20508;-76
2022/01/01 05:52:10;;;;;;;10.32;9.35;;;10.10;99.90;;;;;;4953188;29;20043;-76
2022/01/01 05:54:36;;;;;;;9.63;8.73;;;10.10;99.90;;;;;;4955077;28;20049;-75
2022/01/01 05:57:03;;;;;;;10.77;9.75;;;10.10;99.90;;;;;;4956860;29;20042;-76
2022/01/01 05:59:29;;;;;;;9.20;8.30;;;10.10;99.90;;;;;;4956210;29;20031;-75
2022/01/01 06:01:55;;;;;;;10.80;9.68;;;10.10;99.90;;;;;;4956983;29;20354;-76
2022/01/01 06:04:21;;;;;;;10.02;9.13;;;10.10;99.90;;;;;;4956165;29;20046;-83
2022/01/01 06:06:47;;;;;;;9.70;7.97;;;10.00;99.90;;;;;;4956676;29;20038;-76
2022/01/01 06:09:14;;;;;;;10.43;9.35;;;10.00;99.90;;;;;;4956534;29;20031;-76
2022/01/01 06:11:40;;;;;;;17.58;9.18;;;10.00;99.90;;;;;;4955515;29;20124;-76
2022/01/01 06:14:06;;;;;;;8.43;7.60;;;10.00;99.90;;;;;;4956422;29;20483;-76
2022/01/01 06:16:32;;;;;;;9.30;8.35;;;10.00;99.90;;;;;;4955903;29;20043;-76
2022/01/01 06:18:58;;;;;;;8.40;7.60;;;10.00;99.90;;;;;;4956672;29;20040;-76
2022/01/01 06:21:24;;;;;;;11.40;8.05;;;10.00;99.90;;;;;;4955423;29;20031;-77
2022/01/01 06:23:51;;;;;;;8.18;7.47;;;9.90;99.90;;;;;;4956409;29;20039;-76
2022/01/01 06:26:17;;;;;;;9.02;7.50;;;10.00;99.90;;;;;;4955744;29;20046;-76
2022/01/01 06:28:43;;;;;;;8.45;7.75;;;10.00;99.90;;;;;;4938006;29;20062;-76
2022/01/01 06:31:09;;;;;;;10.07;8.45;;;10.00;99.90;;;;;;4956133;29;20043;-76
2022/01/01 06:33:35;;;;;;;8.63;7.82;;;9.90;99.90;;;;;;4954949;29;20064;-76
2022/01/01 06:36:02;;;;;;;11.70;8.15;;;9.90;99.90;;;;;;4955950;29;20039;-76
2022/01/01 06:38:28;;;;;;;8.25;7.45;;;9.90;99.90;;;;;;4955165;29;20035;-76
2022/01/01 06:40:54;;;;;;;11.95;8.75;;;9.90;99.90;;;;;;4938983;29;20039;-76
2022/01/01 06:43:23;;;;;;;8.90;8.02;;;9.90;99.90;;;;;;4955652;29;20046;-84
2022/01/01 06:45:49;;;;;;;9.65;8.88;;;9.90;99.90;;;;;;4955671;29;20042;-76
2022/01/01 06:48:15;;;;;;;9.38;8.57;;;9.80;99.90;;;;;;4956270;29;20027;-76
2022/01/01 06:50:42;;;;;;;10.25;9.23;;;9.80;99.90;;;;;;4955601;29;20638;-76
2022/01/01 06:53:09;;;;;;;10.13;8.77;;;9.80;99.90;;;;;;4955806;29;20075;-76
2022/01/01 06:55:35;;;;;;;10.15;9.15;;;9.80;99.90;;;;;;4937987;29;20050;-76
2022/01/01 06:58:01;;;;;;;11.05;10.02;;;9.80;99.90;;;;;;4955744;29;20043;-76
2022/01/01 07:00:27;;;;;;;11.15;10.02;;;9.80;99.90;;;;;;4954914;29;20031;-77
2022/01/01 07:02:54;;;;;;;13.02;11.02;;;9.70;99.90;;;;;;4955696;29;20031;-76
2022/01/01 07:05:20;;;;;;;15.60;11.82;;;9.70;99.90;;;;;;4955143;28;20042;-76
2022/01/01 07:07:46;;;;;;;13.90;12.35;;;9.80;99.90;;;;;;4954659;29;20043;-76
2022/01/01 07:10:13;;;;;;;13.95;12.65;;;9.70;99.90;;;;;;4956081;29;20043;-76
2022/01/01 07:12:40;;;;;;;13.80;12.27;;;9.70;99.90;;;;;;4955461;29;20039;-77
2022/01/01 07:15:07;;;;;;;12.52;11.43;;;9.70;99.90;;;;;;4955715;29;20039;-76
2022/01/01 07:17:34;;;;;;;14.75;13.02;;;9.70;99.90;;;;;;4954737;29;20031;-76
2022/01/01 07:20:00;;;;;;;16.77;12.40;;;9.80;99.90;;;;;;4955512;29;20062;-76
2022/01/01 07:22:26;;;;;;;14.48;12.98;;;9.80;99.90;;;;;;4954904;29;20035;-82
2022/01/01 07:24:52;;;;;;;15.23;13.65;;;9.80;99.90;;;;;;4955540;29;20400;-76
2022/01/01 07:27:20;;;;;;;17.48;13.98;;;9.80;99.90;;;;;;4955254;29;20046;-76
2022/01/01 07:29:47;;;;;;;16.25;13.65;;;9.80;99.90;;;;;;4954626;29;20039;-76
2022/01/01 07:32:13;;;;;;;15.43;13.18;;;9.80;99.90;;;;;;4954994;29;20053;-76
2022/01/01 07:34:39;;;;;;;15.88;14.35;;;9.80;99.90;;;;;;4954413;29;20039;-76
2022/01/01 07:37:05;;;;;;;15.80;14.23;;;9.80;99.90;;;;;;4955098;29;20035;-76
2022/01/01 07:39:31;;;;;;;14.93;13.43;;;9.80;99.90;;;;;;4954143;29;20027;-76
2022/01/01 07:41:58;;;;;;;14.90;13.38;;;9.80;99.90;;;;;;4954892;29;20039;-75
2022/01/01 07:44:25;;;;;;;14.30;12.88;;;9.90;99.90;;;;;;4954354;29;20393;-83
2022/01/01 07:46:52;;;;;;;16.60;13.02;;;9.80;99.90;;;;;;4954605;29;20050;-76
2022/01/01 07:49:18;;;;;;;16.10;13.75;;;9.80;99.90;;;;;;4953788;29;20056;-76
2022/01/01 07:51:45;;;;;;;23.25;20.77;;;9.80;99.90;;;;;;4954119;29;20602;-76
2022/01/01 07:54:11;;;;;;;31.60;26.67;;;9.90;99.90;;;;;;4954521;29;20042;-76
2022/01/01 07:56:37;;;;;;;22.27;17.23;;;9.90;99.90;;;;;;4954007;29;20042;-76
2022/01/01 07:59:03;;;;;;;122.75;103.60;;;9.90;99.90;;;;;;4954285;29;20469;-76
2022/01/01 08:01:30;;;;;;;51.83;42.03;;;9.90;99.90;;;;;;4953605;29;20027;-77
2022/01/01 08:04:01;;;;;;;75.15;65.97;;;9.90;99.90;;;;;;4937079;29;20058;-76
2022/01/01 08:06:29;;;;;;;55.72;45.88;;;9.90;99.90;;;;;;4953948;29;20039;-82
2022/01/01 08:08:56;;;;;;;41.13;31.25;;;10.00;99.90;;;;;;4954524;29;20453;-76
2022/01/01 08:11:22;;;;;;;60.28;51.60;;;10.00;99.90;;;;;;4954296;29;20039;-76
2022/01/01 08:13:48;;;;;;;132.27;116.80;;;10.00;99.90;;;;;;4920403;29;20031;-76
2022/01/01 08:16:14;;;;;;;126.30;104.53;;;10.10;99.90;;;;;;4954018;28;20040;-76
2022/01/01 08:18:40;;;;;;;61.38;44.70;;;10.10;99.90;;;;;;4954229;28;20038;-76
2022/01/01 08:21:07;;;;;;;28.73;25.50;;;10.10;99.90;;;;;;4956111;28;20043;-76
2022/01/01 08:23:33;;;;;;;19.45;17.40;;;10.10;99.90;;;;;;4963207;28;20043;-76
2022/01/01 08:26:00;;;;;;;14.43;13.02;;;10.20;99.90;;;;;;4953321;28;20396;-76
2022/01/01 08:28:26;;;;;;;30.77;23.75;;;10.20;99.90;;;;;;4955379;28;20484;-83
2022/01/01 08:30:53;;;;;;;28.10;24.02;;;10.30;99.90;;;;;;4972788;28;20469;-76
2022/01/01 08:33:19;;;;;;;23.83;19.85;;;10.30;99.90;;;;;;4955564;28;20396;-76
2022/01/01 08:35:45;;;;;;;19.17;15.32;;;10.30;99.90;;;;;;4972411;28;20034;-77
2022/01/01 08:38:13;;;;;;;15.55;12.20;;;10.40;99.90;;;;;;4972604;28;20073;-77
2022/01/01 08:40:40;;;;;;;17.85;16.05;;;10.40;99.90;;;;;;4972414;28;20046;-77
2022/01/01 08:43:06;;;;;;;14.50;13.07;;;10.50;99.90;;;;;;4973206;28;20476;-80
2022/01/01 08:45:35;;;;;;;17.15;15.30;;;10.60;99.90;;;;;;4972289;28;20035;-79
2022/01/01 08:48:01;;;;;;;21.42;16.42;;;10.70;99.90;;;;;;4973276;28;20492;-79
2022/01/01 08:50:27;;;;;;;13.40;11.90;;;10.70;99.90;;;;;;4973001;28;20054;-77
2022/01/01 08:52:54;;;;;;;13.25;11.75;;;10.70;99.90;;;;;;4955254;28;20042;-79
2022/01/01 08:55:20;;;;;;;13.88;11.48;;;10.60;99.90;;;;;;4973284;28;20065;-80
2022/01/01 08:57:46;;;;;;;18.92;16.83;;;10.60;99.90;;;;;;4972151;28;20035;-80
2022/01/01 09:00:13;;;;;;;17.25;12.77;;;10.70;99.90;;;;;;4973244;28;20033;-80
2022/01/01 09:02:39;;;;;;;16.08;12.57;;;10.70;99.90;;;;;;4971969;28;20042;-81
2022/01/01 09:05:06;;;;;;;14.30;12.50;;;10.70;99.90;;;;;;4972709;28;20039;-80
2022/01/01 09:07:32;;;;;;;20.90;14.60;;;10.70;99.90;;;;;;4972187;28;20046;-76
2022/01/01 09:09:59;;;;;;;19.30;13.40;;;10.70;99.90;;;;;;4972731;28;20042;-81
2022/01/01 09:12:29;;;;;;;24.60;19.33;;;10.70;99.90;;;;;;4972664;28;20046;-81
2022/01/01 09:14:56;;;;;;;40.08;27.02;;;10.70;99.90;;;;;;4972370;28;20035;-80
2022/01/01 09:17:23;;;;;;;18.40;14.23;;;10.70;99.90;;;;;;4972747;28;20038;-80
2022/01/01 09:19:49;;;;;;;23.40;16.80;;;10.80;99.90;;;;;;4971824;28;20045;-81
2022/01/01 09:22:16;;;;;;;17.98;15.90;;;10.80;99.90;;;;;;4972644;28;20039;-79
2022/01/01 09:24:42;;;;;;;19.23;17.38;;;10.70;99.90;;;;;;4971820;28;20035;-79
2022/01/01 09:27:08;;;;;;;20.58;17.63;;;10.80;99.90;;;;;;4970688;28;20097;-79
2022/01/01 09:29:35;;;;;;;25.88;20.38;;;10.80;99.90;;;;;;4945687;29;20039;-79
2022/01/01 09:32:02;;;;;;;24.88;15.88;;;11.00;99.90;;;;;;4958462;29;20028;-78
2022/01/01 09:34:28;;;;;;;22.13;18.90;;;11.00;99.90;;;;;;4956456;29;20032;-79
2022/01/01 09:36:54;;;;;;;16.45;13.00;;;11.00;99.90;;;;;;4951871;29;20047;-79
2022/01/01 09:39:21;;;;;;;13.82;12.38;;;11.10;99.90;;;;;;4952275;29;20046;-80
2022/01/01 09:41:47;;;;;;;15.90;14.30;;;11.10;99.90;;;;;;4942035;29;20036;-80
2022/01/01 09:44:15;;;;;;;24.17;21.33;;;11.20;99.90;;;;;;4938079;29;20036;-79
2022/01/01 09:46:44;;;;;;;15.05;12.77;;;11.20;99.90;;;;;;4919812;29;20054;-79
2022/01/01 09:49:13;;;;;;;22.17;19.55;;;11.30;99.90;;;;;;4937875;29;20397;-80
2022/01/01 09:51:40;;;;;;;11.80;10.70;;;11.50;99.90;;;;;;4936911;29;20031;-79
2022/01/01 09:54:07;;;;;;;11.98;10.80;;;11.50;99.90;;;;;;4937493;29;20476;-79
2022/01/01 09:56:34;;;;;;;12.82;9.88;;;11.30;99.90;;;;;;4937154;29;20488;-76
2022/01/01 09:59:00;;;;;;;11.70;10.48;;;11.20;99.90;;;;;;4937457;29;20046;-80
2022/01/01 10:01:26;;;;;;;12.27;10.98;;;11.30;99.90;;;;;;4920421;29;20509;-80
2022/01/01 10:03:53;;;;;;;12.90;11.35;;;11.30;99.90;;;;;;4936254;29;20032;-79
2022/01/01 10:06:21;;;;;;;12.45;10.30;;;11.40;99.90;;;;;;4937248;29;20040;-79
2022/01/01 10:08:59;;;;;;;10.82;9.70;;;11.50;99.90;;;;;;4936443;29;20047;-80
2022/01/01 10:11:26;;;;;;;12.30;9.82;;;11.50;99.90;;;;;;4937515;29;20035;-79
2022/01/01 10:13:53;;;;;;;15.05;10.68;;;11.50;99.90;;;;;;4936204;29;20589;-79
2022/01/01 10:16:19;;;;;;;10.15;9.15;;;11.60;99.90;;;;;;4937126;29;20039;-79
2022/01/01 10:18:48;;;;;;;10.80;9.70;;;11.60;99.90;;;;;;4936395;29;20043;-80
2022/01/01 10:21:16;;;;;;;10.95;9.85;;;11.60;99.90;;;;;;4937275;29;20058;-81
2022/01/01 10:23:45;;;;;;;12.05;9.82;;;11.50;99.90;;;;;;4936332;29;20032;-81
2022/01/01 10:29:10;;;;;;;9.73;8.77;;;11.60;99.90;;;;;;4946247;29;20362;-81
2022/01/01 10:31:38;;;;;;;14.88;10.57;;;11.80;99.90;;;;;;4943469;29;20028;-76
2022/01/01 10:34:15;;;;;;;12.73;10.00;;;11.80;99.90;;;;;;4936920;29;20038;-83
2022/01/01 10:36:45;;;;;;;11.23;9.43;;;11.90;99.90;;;;;;4936000;29;20039;-82
2022/01/01 10:39:14;;;;;;;12.27;10.02;;;11.90;99.90;;;;;;4928227;28;20050;-81
2022/01/01 10:41:46;;;;;;;9.35;8.23;;;12.00;99.90;;;;;;4946949;29;20491;-81
2022/01/01 10:44:12;;;;;;;11.18;9.23;;;11.90;99.90;;;;;;4955118;29;20046;-83
2022/01/01 10:46:39;;;;;;;9.45;8.55;;;11.90;99.90;;;;;;4950589;29;20031;-81
2022/01/01 10:52:19;;;;;;;13.07;8.30;;;12.10;99.90;;;;;;4935562;29;20043;-81
2022/01/01 10:55:00;;;;;;;9.52;8.05;;;12.00;99.60;;;;;;4935573;29;20042;-82
2022/01/01 10:57:34;;;;;;;8.77;7.93;;;12.10;99.60;;;;;;4936627;29;20039;-82
2022/01/01 11:00:23;;;;;;;8.52;7.70;;;12.10;99.50;;;;;;4935772;29;20101;-81
2022/01/01 11:02:51;;;;;;;12.32;9.07;;;12.10;98.40;;;;;;4935822;29;20031;-83
2022/01/01 11:05:38;;;;;;;9.88;7.90;;;12.20;98.70;;;;;;4936426;29;20039;-82
2022/01/01 11:08:08;;;;;;;10.75;7.80;;;12.30;98.60;;;;;;4936053;29;20059;-82
2022/01/01 11:10:37;;;;;;;10.77;7.22;;;12.40;98.40;;;;;;4936404;29;20032;-82
2022/01/01 11:13:05;;;;;;;8.00;6.93;;;12.50;97.90;;;;;;4936016;29;20035;-81
2022/01/01 11:15:31;;;;;;;8.07;7.28;;;12.60;97.70;;;;;;4935988;29;20048;-82
2022/01/01 11:17:59;;;;;;;12.50;7.53;;;12.60;97.10;;;;;;4935990;29;20043;-83
2022/01/01 11:20:34;;;;;;;8.60;7.80;;;12.60;96.60;;;;;;4936210;29;20044;-83
2022/01/01 11:23:05;;;;;;;10.68;8.38;;;12.60;96.20;;;;;;4935691;29;20465;-83
2022/01/01 11:25:33;;;;;;;12.70;8.32;;;12.60;96.30;;;;;;4934130;29;20040;-83
2022/01/01 11:28:00;;;;;;;10.10;8.73;;;12.70;96.00;;;;;;4935374;29;20035;-83
2022/01/01 11:30:29;;;;;;;11.00;8.80;;;12.80;95.60;;;;;;4933856;29;20046;-82
2022/01/01 11:33:02;;;;;;;11.40;9.32;;;12.60;94.90;;;;;;4935373;29;20482;-83
2022/01/01 11:35:32;;;;;;;13.15;8.65;;;12.50;95.50;;;;;;4935248;29;20036;-83
2022/01/01 11:38:08;;;;;;;9.57;8.35;;;12.50;95.90;;;;;;4934986;29;20035;-83
2022/01/01 11:41:06;;;;;;;11.57;8.88;;;12.60;95.60;;;;;;4935802;29;20486;-83
2022/01/01 11:43:37;;;;;;;10.73;8.45;;;12.60;95.30;;;;;;4935914;29;20039;-81
2022/01/01 11:46:06;;;;;;;14.77;8.63;;;12.40;95.60;;;;;;4935881;29;20036;-83
2022/01/01 11:48:37;;;;;;;10.32;8.70;;;12.40;95.80;;;;;;4934129;29;20051;-82
2022/01/01 11:51:38;;;;;;;10.35;9.13;;;12.50;95.70;;;;;;4937496;29;20098;-82
2022/01/01 11:54:21;;;;;;;11.25;8.18;;;12.50;95.40;;;;;;4954816;29;20035;-83
2022/01/01 11:56:49;;;;;;;9.55;8.43;;;12.50;95.10;;;;;;4955326;29;20046;-82
2022/01/01 11:59:23;;;;;;;10.40;8.52;;;12.50;95.60;;;;;;4956669;29;20034;-83
2022/01/01 12:01:52;;;;;;;10.30;7.93;;;12.50;95.40;;;;;;4957647;29;20034;-82
2022/01/01 12:04:44;;;;;;;9.57;8.57;;;12.60;95.30;;;;;;4958103;29;20043;-82
2022/01/01 12:07:16;;;;;;;10.68;9.25;;;12.50;94.70;;;;;;4940373;29;20397;-83
2022/01/01 12:10:01;;;;;;;9.93;8.93;;;12.40;95.20;;;;;;4945627;29;20032;-79
2022/01/01 12:12:39;;;;;;;13.07;9.90;;;12.50;95.40;;;;;;4936789;29;20059;-83
2022/01/01 12:15:08;;;;;;;14.45;9.75;;;12.50;95.10;;;;;;4943522;29;20036;-83
2022/01/01 12:17:45;;;;;;;12.25;10.02;;;12.40;94.90;;;;;;4944197;29;20039;-81
2022/01/01 12:20:17;;;;;;;11.02;9.63;;;12.40;95.10;;;;;;4943904;29;20040;-83
2022/01/01 12:22:44;;;;;;;14.35;9.48;;;12.30;94.90;;;;;;4942265;29;20047;-83
2022/01/01 12:25:15;;;;;;;11.27;9.70;;;12.30;95.20;;;;;;4946148;29;20031;-81
2022/01/01 12:27:50;;;;;;;10.45;9.38;;;12.40;95.10;;;;;;4948203;29;20397;-81
2022/01/01 12:30:49;;;;;;;13.55;9.68;;;12.40;95.00;;;;;;4942744;29;20031;-85
2022/01/01 12:33:24;;;;;;;10.23;9.02;;;12.50;94.80;;;;;;4935376;29;20058;-84
2022/01/01 12:35:58;;;;;;;12.85;8.85;;;12.50;94.90;;;;;;4934393;29;20028;-82
2022/01/01 12:38:27;;;;;;;12.10;10.50;;;12.60;94.60;;;;;;4935319;29;20484;-80
2022/01/01 12:41:13;;;;;;;14.43;10.20;;;12.70;94.50;;;;;;4934925;29;20039;-81
2022/01/01 12:43:50;;;;;;;10.27;9.15;;;12.60;94.20;;;;;;4935228;29;20450;-81
2022/01/01 12:46:23;;;;;;;14.05;8.73;;;12.70;94.20;;;;;;4935050;29;20034;-81
2022/01/01 12:48:50;;;;;;;9.85;8.85;;;12.70;94.10;;;;;;4934314;29;20062;-82
2022/01/01 12:51:22;;;;;;;10.63;9.23;;;12.80;94.20;;;;;;4934778;29;20035;-84